Shirleysburg, Pennsylvania
Current Conditions -  °F | °C
As of 11:53 AM on Monday 22 Dec 2014 (Local Time) from KAOO Reporting Station
Overcast Overcast  
Wind Chill: 24°   Ceiling: 2200
Heat Index: 29°   Visibility: 7mi
Dew Point: 24°   Wind: 5mph
Humidity: 82%   Direction: 120°ESE
Pressure: 30.19"   Gusts: NA
Location:  40.3°N, 77.87°W
Report Text: KAOO 221653Z AUTO 12004KT 7SM OVC022 M02/M04 A3019 RMK AO2 SLP243 T10171044
Loading
Personal Weather Stations






























Interactive Weather Map New forecast layout! Learn more

10-Day Weather Forecast

Advertisements
Track Severe Weather on mobile